KOLY/OLY METAR and TAF weather

Enter ICAO airport designator
Station Type Date Time Source
KOLY METAR 2020/07/04 08:55 UTC NOAA

KOLY 040855Z AUTO 00000KT 10SM BKN075 21/20 A2998 RMK AO2 T02090203


Station Type Date Time Source
KOLY Decoded METAR 2020/07/04 08:55 UTC NOAA

Olney-Noble, Olney-Noble Airport, IL, United States (KOLY) 38-43-19N 088-10-35W
Jul 04, 2020 - 04:55 AM EDT / 2020.07.04 0855 UTC
Wind: Calm:0
Visibility: 10 mile(s):0
Sky conditions: mostly cloudy
Temperature: 69.6 F (20.9 C)
Dew Point: 68.5 F (20.3 C)
Relative Humidity: 96%
Pressure (altimeter): 29.98 in. Hg (1015 hPa)
ob: KOLY 040855Z AUTO 00000KT 10SM BKN075 21/20 A2998 RMK AO2 T02090203
cycle: 9

Station Type Date Time Source
KOLY TAF UTC NOAA

Error!

Example: see airport list